sensor_id;sensor_type;location;lat;lon;timestamp;pressure;altitude;pressure_sealevel;temperature;humidity
48792;BME280;34587;48.816;9.420;2023-04-22T04:15:33;98174.22;;;9.27;97.90
48792;BME280;34587;48.816;9.420;2023-04-22T04:18:00;98173.44;;;9.24;98.19
48792;BME280;34587;48.816;9.420;2023-04-22T04:20:27;98167.50;;;9.20;98.63
48792;BME280;34587;48.816;9.420;2023-04-22T04:22:52;98164.22;;;9.14;98.70
48792;BME280;34587;48.816;9.420;2023-04-22T04:25:18;98174.50;;;9.15;99.05
48792;BME280;34587;48.816;9.420;2023-04-22T04:27:45;98163.38;;;9.12;99.19
48792;BME280;34587;48.816;9.420;2023-04-22T04:30:11;98167.63;;;9.14;98.88
48792;BME280;34587;48.816;9.420;2023-04-22T04:32:37;98166.84;;;9.11;99.02
48792;BME280;34587;48.816;9.420;2023-04-22T04:35:03;98170.38;;;9.07;99.12
48792;BME280;34587;48.816;9.420;2023-04-22T04:37:28;98163.44;;;9.09;99.39
48792;BME280;34587;48.816;9.420;2023-04-22T04:39:54;98161.72;;;9.09;98.99
48792;BME280;34587;48.816;9.420;2023-04-22T04:42:19;98160.03;;;9.07;99.03
48792;BME280;34587;48.816;9.420;2023-04-22T04:44:44;98156.66;;;9.05;99.14
48792;BME280;34587;48.816;9.420;2023-04-22T04:47:11;98156.66;;;9.05;99.26
48792;BME280;34587;48.816;9.420;2023-04-22T04:49:37;98172.16;;;9.05;99.40
48792;BME280;34587;48.816;9.420;2023-04-22T04:52:04;98169.66;;;9.00;99.65
48792;BME280;34587;48.816;9.420;2023-04-22T04:54:31;98167.00;;;9.05;98.62
48792;BME280;34587;48.816;9.420;2023-04-22T04:56:56;98168.75;;;9.02;97.80
48792;BME280;34587;48.816;9.420;2023-04-22T04:59:22;98168.63;;;9.07;97.75
48792;BME280;34587;48.816;9.420;2023-04-22T05:01:47;98167.78;;;9.07;98.16
48792;BME280;34587;48.816;9.420;2023-04-22T05:04:13;98167.00;;;9.05;98.61
48792;BME280;34587;48.816;9.420;2023-04-22T05:06:38;98173.66;;;9.15;98.45
48792;BME280;34587;48.816;9.420;2023-04-22T05:09:04;98171.88;;;9.17;97.73
48792;BME280;34587;48.816;9.420;2023-04-22T05:11:29;98177.13;;;9.14;98.10
48792;BME280;34587;48.816;9.420;2023-04-22T05:13:55;98177.13;;;9.14;98.70
48792;BME280;34587;48.816;9.420;2023-04-22T05:16:20;98178.63;;;9.24;98.04
48792;BME280;34587;48.816;9.420;2023-04-22T05:18:46;98178.34;;;9.36;96.71
48792;BME280;34587;48.816;9.420;2023-04-22T05:21:11;98173.31;;;9.30;96.62
48792;BME280;34587;48.816;9.420;2023-04-22T05:23:36;98174.94;;;9.34;96.59
48792;BME280;34587;48.816;9.420;2023-04-22T05:26:01;98174.78;;;9.40;95.66
48792;BME280;34587;48.816;9.420;2023-04-22T05:28:27;98174.78;;;9.40;94.84
48792;BME280;34587;48.816;9.420;2023-04-22T05:30:52;98179.06;;;9.43;94.24
48792;BME280;34587;48.816;9.420;2023-04-22T05:33:17;98176.44;;;9.44;94.73
48792;BME280;34587;48.816;9.420;2023-04-22T05:35:43;98178.06;;;9.48;95.01
48792;BME280;34587;48.816;9.420;2023-04-22T05:38:08;98167.94;;;9.39;95.17
48792;BME280;34587;48.816;9.420;2023-04-22T05:40:33;98172.25;;;9.39;95.04
48792;BME280;34587;48.816;9.420;2023-04-22T05:42:58;98177.38;;;9.40;95.62
48792;BME280;34587;48.816;9.420;2023-04-22T05:45:24;98181.50;;;9.47;95.32
48792;BME280;34587;48.816;9.420;2023-04-22T05:47:49;98173.75;;;9.47;95.44
48792;BME280;34587;48.816;9.420;2023-04-22T05:50:14;98181.50;;;9.47;94.93
48792;BME280;34587;48.816;9.420;2023-04-22T05:52:40;98179.69;;;9.52;94.99
48792;BME280;34587;48.816;9.420;2023-04-22T05:55:05;98185.00;;;9.46;95.18
48792;BME280;34587;48.816;9.420;2023-04-22T05:57:31;98178.06;;;9.48;94.93
48792;BME280;34587;48.816;9.420;2023-04-22T05:59:58;98183.28;;;9.45;94.55
48792;BME280;34587;48.816;9.420;2023-04-22T06:02:23;98185.00;;;9.46;94.57
48792;BME280;34587;48.816;9.420;2023-04-22T06:04:49;98193.38;;;9.56;94.57
48792;BME280;34587;48.816;9.420;2023-04-22T06:07:14;98196.53;;;9.69;93.45
48792;BME280;34587;48.816;9.420;2023-04-22T06:09:39;98199.66;;;9.83;92.78
48792;BME280;34587;48.816;9.420;2023-04-22T06:12:05;98199.22;;;10.00;91.62
48792;BME280;34587;48.816;9.420;2023-04-22T06:14:30;98203.81;;;10.23;90.08
48792;BME280;34587;48.816;9.420;2023-04-22T06:16:55;98197.94;;;10.50;89.08
48792;BME280;34587;48.816;9.420;2023-04-22T06:19:21;98192.00;;;10.78;86.68
48792;BME280;34587;48.816;9.420;2023-04-22T06:21:46;98197.03;;;11.14;85.39
48792;BME280;34587;48.816;9.420;2023-04-22T06:24:11;98192.44;;;11.50;84.00
48792;BME280;34587;48.816;9.420;2023-04-22T06:26:37;98192.44;;;11.78;81.06
48792;BME280;34587;48.816;9.420;2023-04-22T06:29:02;98195.38;;;11.67;80.94
48792;BME280;34587;48.816;9.420;2023-04-22T06:31:32;98193.94;;;12.38;79.17
48792;BME280;34587;48.816;9.420;2023-04-22T06:33:57;98189.59;;;13.09;73.96
48792;BME280;34587;48.816;9.420;2023-04-22T06:36:24;98182.91;;;13.27;73.19
48792;BME280;34587;48.816;9.420;2023-04-22T06:38:49;98185.00;;;13.39;72.40
48792;BME280;34587;48.816;9.420;2023-04-22T06:41:15;98179.94;;;13.36;73.42
48792;BME280;34587;48.816;9.420;2023-04-22T06:43:40;98188.03;;;13.28;73.77
48792;BME280;34587;48.816;9.420;2023-04-22T06:46:06;98186.97;;;13.56;72.45
48792;BME280;34587;48.816;9.420;2023-04-22T06:48:31;98191.44;;;13.74;71.70
48792;BME280;34587;48.816;9.420;2023-04-22T06:50:56;98186.63;;;14.28;69.80
48792;BME280;34587;48.816;9.420;2023-04-22T06:53:22;98182.69;;;14.79;67.67
48792;BME280;34587;48.816;9.420;2023-04-22T06:55:47;98180.06;;;14.99;66.74
48792;BME280;34587;48.816;9.420;2023-04-22T06:58:12;98180.00;;;15.56;65.07
48792;BME280;34587;48.816;9.420;2023-04-22T07:00:38;98180.06;;;15.90;62.59
48792;BME280;34587;48.816;9.420;2023-04-22T07:03:03;98188.22;;;15.48;63.67
48792;BME280;34587;48.816;9.420;2023-04-22T07:05:28;98185.84;;;15.61;63.78
48792;BME280;34587;48.816;9.420;2023-04-22T07:07:54;98182.78;;;14.96;65.23
48792;BME280;34587;48.816;9.420;2023-04-22T07:10:19;98181.72;;;15.00;66.35
48792;BME280;34587;48.816;9.420;2023-04-22T07:12:44;98181.44;;;15.25;65.39
48792;BME280;34587;48.816;9.420;2023-04-22T07:15:10;98182.81;;;15.51;65.04
48792;BME280;34587;48.816;9.420;2023-04-22T07:17:35;98180.91;;;15.74;64.00
48792;BME280;34587;48.816;9.420;2023-04-22T07:20:01;98182.38;;;15.05;66.58
48792;BME280;34587;48.816;9.420;2023-04-22T07:22:26;98175.56;;;16.29;63.24
48792;BME280;34587;48.816;9.420;2023-04-22T07:24:51;98172.91;;;16.63;61.20
48792;BME280;34587;48.816;9.420;2023-04-22T07:27:16;98169.88;;;16.88;60.93
48792;BME280;34587;48.816;9.420;2023-04-22T07:29:42;98172.88;;;18.07;57.57
48792;BME280;34587;48.816;9.420;2023-04-22T07:32:07;98157.44;;;19.04;54.62
48792;BME280;34587;48.816;9.420;2023-04-22T07:34:33;98165.06;;;18.36;55.75
48792;BME280;34587;48.816;9.420;2023-04-22T07:36:58;98165.47;;;18.44;54.65
48792;BME280;34587;48.816;9.420;2023-04-22T07:39:23;98158.19;;;19.06;53.71
48792;BME280;34587;48.816;9.420;2023-04-22T07:41:49;98160.97;;;19.17;52.23
48792;BME280;34587;48.816;9.420;2023-04-22T07:44:15;98146.38;;;19.82;51.00
48792;BME280;34587;48.816;9.420;2023-04-22T07:46:46;98147.50;;;20.17;49.23
48792;BME280;34587;48.816;9.420;2023-04-22T07:49:11;98141.69;;;19.72;50.93
48792;BME280;34587;48.816;9.420;2023-04-22T07:51:38;98141.50;;;19.75;50.49
48792;BME280;34587;48.816;9.420;2023-04-22T07:54:04;98135.75;;;20.87;46.32
48792;BME280;34587;48.816;9.420;2023-04-22T07:56:29;98135.09;;;20.83;44.68
48792;BME280;34587;48.816;9.420;2023-04-22T07:58:54;98142.25;;;20.43;43.67
48792;BME280;34587;48.816;9.420;2023-04-22T08:01:20;98133.41;;;20.95;43.99
48792;BME280;34587;48.816;9.420;2023-04-22T08:03:45;98141.56;;;22.24;43.68
48792;BME280;34587;48.816;9.420;2023-04-22T08:06:10;98145.72;;;22.84;40.98
48792;BME280;34587;48.816;9.420;2023-04-22T08:08:36;98146.19;;;23.01;41.45
48792;BME280;34587;48.816;9.420;2023-04-22T08:11:01;98151.28;;;23.58;41.88
48792;BME280;34587;48.816;9.420;2023-04-22T08:13:26;98148.19;;;23.42;39.49
48792;BME280;34587;48.816;9.420;2023-04-22T08:15:52;98143.84;;;23.96;39.86
48792;BME280;34587;48.816;9.420;2023-04-22T08:18:17;98146.19;;;22.78;40.85
48792;BME280;34587;48.816;9.420;2023-04-22T08:20:42;98154.97;;;21.62;41.69
48792;BME280;34587;48.816;9.420;2023-04-22T08:23:08;98157.75;;;21.48;41.27
48792;BME280;34587;48.816;9.420;2023-04-22T08:25:33;98157.25;;;22.83;40.47
48792;BME280;34587;48.816;9.420;2023-04-22T08:27:59;98157.16;;;24.26;37.12
48792;BME280;34587;48.816;9.420;2023-04-22T08:30:24;98154.03;;;23.79;36.22
48792;BME280;34587;48.816;9.420;2023-04-22T08:32:49;98160.19;;;23.57;37.24
48792;BME280;34587;48.816;9.420;2023-04-22T08:35:17;98156.78;;;23.01;37.64
48792;BME280;34587;48.816;9.420;2023-04-22T08:37:43;98163.09;;;23.66;35.60
48792;BME280;34587;48.816;9.420;2023-04-22T08:40:08;98158.50;;;23.56;36.42
48792;BME280;34587;48.816;9.420;2023-04-22T08:42:34;98155.75;;;22.46;37.83
48792;BME280;34587;48.816;9.420;2023-04-22T08:45:01;98156.97;;;22.75;37.16
48792;BME280;34587;48.816;9.420;2023-04-22T08:47:27;98159.28;;;22.22;38.00
48792;BME280;34587;48.816;9.420;2023-04-22T08:49:54;98160.75;;;22.26;37.95
48792;BME280;34587;48.816;9.420;2023-04-22T08:52:20;98152.66;;;22.63;37.26
48792;BME280;34587;48.816;9.420;2023-04-22T08:54:45;98154.75;;;22.93;38.59
48792;BME280;34587;48.816;9.420;2023-04-22T08:57:11;98149.47;;;23.70;36.63
48792;BME280;34587;48.816;9.420;2023-04-22T08:59:38;98153.06;;;23.26;37.34
48792;BME280;34587;48.816;9.420;2023-04-22T09:02:05;98153.00;;;23.92;34.60
48792;BME280;34587;48.816;9.420;2023-04-22T09:04:31;98146.84;;;24.96;32.71
48792;BME280;34587;48.816;9.420;2023-04-22T09:06:58;98140.00;;;27.61;30.41
48792;BME280;34587;48.816;9.420;2023-04-22T09:09:26;98144.44;;;28.68;28.52
48792;BME280;34587;48.816;9.420;2023-04-22T09:11:52;98141.03;;;29.18;26.50
48792;BME280;34587;48.816;9.420;2023-04-22T09:14:17;98144.63;;;31.06;25.14
48792;BME280;34587;48.816;9.420;2023-04-22T09:16:47;98139.50;;;29.07;26.27
48792;BME280;34587;48.816;9.420;2023-04-22T09:19:15;98137.75;;;31.12;25.48
48792;BME280;34587;48.816;9.420;2023-04-22T09:21:40;98128.69;;;35.11;21.14
48792;BME280;34587;48.816;9.420;2023-04-22T09:24:10;98140.56;;;35.91;19.95
48792;BME280;34587;48.816;9.420;2023-04-22T09:26:39;98133.09;;;35.86;20.24
48792;BME280;34587;48.816;9.420;2023-04-22T09:29:05;98126.78;;;33.78;21.37
48792;BME280;34587;48.816;9.420;2023-04-22T09:31:34;98126.75;;;34.42;21.04
48792;BME280;34587;48.816;9.420;2023-04-22T09:33:59;98124.66;;;35.41;20.15
48792;BME280;34587;48.816;9.420;2023-04-22T09:36:28;98124.16;;;34.83;19.76
48792;BME280;34587;48.816;9.420;2023-04-22T09:38:56;98127.59;;;34.98;19.69
48792;BME280;34587;48.816;9.420;2023-04-22T09:41:39;98117.28;;;36.89;18.80
48792;BME280;34587;48.816;9.420;2023-04-22T09:44:10;98125.72;;;33.06;21.52
48792;BME280;34587;48.816;9.420;2023-04-22T09:46:40;98119.81;;;32.06;22.23
48792;BME280;34587;48.816;9.420;2023-04-22T09:49:07;98130.88;;;29.88;24.66
48792;BME280;34587;48.816;9.420;2023-04-22T09:51:33;98114.16;;;27.89;28.07
48792;BME280;34587;48.816;9.420;2023-04-22T09:54:00;98102.81;;;30.41;25.21
48792;BME280;34587;48.816;9.420;2023-04-22T09:56:45;98101.91;;;31.29;23.65
48792;BME280;34587;48.816;9.420;2023-04-22T09:59:13;98104.91;;;32.26;23.01
48792;BME280;34587;48.816;9.420;2023-04-22T10:01:39;98108.34;;;33.74;21.30
48792;BME280;34587;48.816;9.420;2023-04-22T10:04:06;98103.72;;;33.68;21.64
48792;BME280;34587;48.816;9.420;2023-04-22T10:06:33;98102.22;;;32.64;21.36
48792;BME280;34587;48.816;9.420;2023-04-22T10:08:59;98092.34;;;34.37;20.42
48792;BME280;34587;48.816;9.420;2023-04-22T10:11:25;98086.03;;;35.21;19.96
48792;BME280;34587;48.816;9.420;2023-04-22T10:13:50;98090.03;;;33.85;20.44
48792;BME280;34587;48.816;9.420;2023-04-22T10:16:18;98084.88;;;34.05;19.88
48792;BME280;34587;48.816;9.420;2023-04-22T10:18:46;98081.59;;;35.55;18.78
48792;BME280;34587;48.816;9.420;2023-04-22T10:21:12;98079.19;;;36.13;18.24
48792;BME280;34587;48.816;9.420;2023-04-22T10:23:44;98084.13;;;34.17;20.05
48792;BME280;34587;48.816;9.420;2023-04-22T10:26:10;98076.28;;;34.72;20.16
48792;BME280;34587;48.816;9.420;2023-04-22T10:28:42;98076.50;;;34.21;20.17
48792;BME280;34587;48.816;9.420;2023-04-22T10:31:19;98077.75;;;32.59;20.42
48792;BME280;34587;48.816;9.420;2023-04-22T10:33:48;98081.16;;;33.63;20.29
48792;BME280;34587;48.816;9.420;2023-04-22T10:39:13;98067.97;;;32.66;21.32
48792;BME280;34587;48.816;9.420;2023-04-22T10:41:38;98071.28;;;34.69;18.66
48792;BME280;34587;48.816;9.420;2023-04-22T10:44:07;98073.59;;;33.52;18.85
48792;BME280;34587;48.816;9.420;2023-04-22T10:49:16;98063.69;;;32.86;19.49
48792;BME280;34587;48.816;9.420;2023-04-22T10:51:43;98058.72;;;31.78;20.20
48792;BME280;34587;48.816;9.420;2023-04-22T10:57:12;98054.53;;;32.81;19.35
48792;BME280;34587;48.816;9.420;2023-04-22T11:02:14;98036.84;;;34.58;18.58
48792;BME280;34587;48.816;9.420;2023-04-22T11:04:41;98040.16;;;33.18;18.73
48792;BME280;34587;48.816;9.420;2023-04-22T11:10:07;98031.41;;;32.35;20.50
48792;BME280;34587;48.816;9.420;2023-04-22T11:15:14;98037.56;;;30.67;21.06
48792;BME280;34587;48.816;9.420;2023-04-22T11:17:48;98029.84;;;33.58;19.42
48792;BME280;34587;48.816;9.420;2023-04-22T11:20:14;98037.22;;;33.13;19.73
48792;BME280;34587;48.816;9.420;2023-04-22T11:22:44;98030.78;;;33.71;18.13
48792;BME280;34587;48.816;9.420;2023-04-22T11:25:10;98029.78;;;34.57;18.29
48792;BME280;34587;48.816;9.420;2023-04-22T11:27:37;98034.66;;;35.29;17.18
48792;BME280;34587;48.816;9.420;2023-04-22T11:30:16;98036.84;;;31.66;19.16
48792;BME280;34587;48.816;9.420;2023-04-22T11:32:44;98042.84;;;30.11;19.36
48792;BME280;34587;48.816;9.420;2023-04-22T11:35:12;98035.00;;;30.10;19.69
48792;BME280;34587;48.816;9.420;2023-04-22T11:37:44;98035.38;;;29.74;19.43
48792;BME280;34587;48.816;9.420;2023-04-22T11:40:18;98031.66;;;29.42;20.59
48792;BME280;34587;48.816;9.420;2023-04-22T11:42:44;98020.16;;;30.24;19.91
48792;BME280;34587;48.816;9.420;2023-04-22T11:45:09;98016.44;;;31.19;19.78
48792;BME280;34587;48.816;9.420;2023-04-22T11:47:36;98016.16;;;30.67;19.38
48792;BME280;34587;48.816;9.420;2023-04-22T11:50:05;98021.34;;;29.88;19.71
48792;BME280;34587;48.816;9.420;2023-04-22T11:55:21;98017.81;;;30.68;19.57
48792;BME280;34587;48.816;9.420;2023-04-22T11:57:54;98022.44;;;30.35;18.75
48792;BME280;34587;48.816;9.420;2023-04-22T12:00:20;98025.31;;;30.17;19.77
48792;BME280;34587;48.816;9.420;2023-04-22T12:02:56;98025.69;;;29.89;20.78
48792;BME280;34587;48.816;9.420;2023-04-22T12:05:32;98028.97;;;27.18;24.17
48792;BME280;34587;48.816;9.420;2023-04-22T12:07:59;98027.19;;;26.07;24.62
48792;BME280;34587;48.816;9.420;2023-04-22T12:10:25;98030.41;;;25.23;25.70
48792;BME280;34587;48.816;9.420;2023-04-22T12:12:50;98028.19;;;25.48;26.05
48792;BME280;34587;48.816;9.420;2023-04-22T12:15:15;98020.84;;;24.92;26.01
48792;BME280;34587;48.816;9.420;2023-04-22T12:17:43;98026.44;;;24.98;25.96
48792;BME280;34587;48.816;9.420;2023-04-22T12:20:12;98014.22;;;25.26;26.63
48792;BME280;34587;48.816;9.420;2023-04-22T12:22:37;98011.59;;;25.46;26.11
48792;BME280;34587;48.816;9.420;2023-04-22T12:25:03;98006.69;;;25.31;26.86
48792;BME280;34587;48.816;9.420;2023-04-22T12:27:29;98004.44;;;25.95;26.99
48792;BME280;34587;48.816;9.420;2023-04-22T12:29:56;97993.47;;;26.17;26.32
48792;BME280;34587;48.816;9.420;2023-04-22T12:32:23;98001.38;;;26.64;25.28
48792;BME280;34587;48.816;9.420;2023-04-22T12:34:49;98000.56;;;26.63;25.10
48792;BME280;34587;48.816;9.420;2023-04-22T12:37:15;98013.34;;;26.78;24.88
48792;BME280;34587;48.816;9.420;2023-04-22T12:39:42;98008.81;;;26.23;25.37
48792;BME280;34587;48.816;9.420;2023-04-22T12:42:07;98012.97;;;25.11;26.62
48792;BME280;34587;48.816;9.420;2023-04-22T12:44:32;98014.94;;;24.69;27.57
48792;BME280;34587;48.816;9.420;2023-04-22T12:46:58;98017.16;;;24.64;27.07
48792;BME280;34587;48.816;9.420;2023-04-22T12:49:24;98012.94;;;24.30;27.42
48792;BME280;34587;48.816;9.420;2023-04-22T12:51:49;98017.94;;;24.03;28.35
48792;BME280;34587;48.816;9.420;2023-04-22T12:54:15;98007.19;;;24.86;27.31
48792;BME280;34587;48.816;9.420;2023-04-22T12:56:40;98006.31;;;24.15;28.35
48792;BME280;34587;48.816;9.420;2023-04-22T12:59:05;98014.41;;;23.93;27.97
48792;BME280;34587;48.816;9.420;2023-04-22T13:01:31;97999.72;;;24.30;28.17
48792;BME280;34587;48.816;9.420;2023-04-22T13:03:56;98005.44;;;25.35;27.63
48792;BME280;34587;48.816;9.420;2023-04-22T13:06:22;97999.69;;;25.69;26.95
48792;BME280;34587;48.816;9.420;2023-04-22T13:08:47;97995.97;;;24.73;28.96
48792;BME280;34587;48.816;9.420;2023-04-22T13:11:12;97995.31;;;24.41;28.31
48792;BME280;34587;48.816;9.420;2023-04-22T13:13:38;97996.03;;;24.43;28.77
48792;BME280;34587;48.816;9.420;2023-04-22T13:16:03;97999.22;;;23.85;29.38
48792;BME280;34587;48.816;9.420;2023-04-22T13:18:29;97999.09;;;24.17;29.42
48792;BME280;34587;48.816;9.420;2023-04-22T13:20:54;97990.03;;;23.89;29.81
48792;BME280;34587;48.816;9.420;2023-04-22T13:23:22;97985.91;;;23.75;29.49
48792;BME280;34587;48.816;9.420;2023-04-22T13:25:50;97984.53;;;23.60;29.54
48792;BME280;34587;48.816;9.420;2023-04-22T13:28:15;97985.00;;;23.86;29.61
48792;BME280;34587;48.816;9.420;2023-04-22T13:30:40;97979.06;;;23.73;29.51
48792;BME280;34587;48.816;9.420;2023-04-22T13:33:06;97977.56;;;24.01;28.81
48792;BME280;34587;48.816;9.420;2023-04-22T13:35:31;97974.88;;;23.70;29.23
48792;BME280;34587;48.816;9.420;2023-04-22T13:37:56;97968.69;;;24.11;30.17
48792;BME280;34587;48.816;9.420;2023-04-22T13:40:22;97974.06;;;23.70;30.61
48792;BME280;34587;48.816;9.420;2023-04-22T13:42:47;97969.06;;;23.55;30.73
48792;BME280;34587;48.816;9.420;2023-04-22T13:45:13;97968.19;;;23.34;31.07
48792;BME280;34587;48.816;9.420;2023-04-22T13:47:38;97970.41;;;23.50;30.23
48792;BME280;34587;48.816;9.420;2023-04-22T13:50:04;97964.06;;;23.62;30.51
48792;BME280;34587;48.816;9.420;2023-04-22T13:52:30;97966.22;;;23.68;30.33
48792;BME280;34587;48.816;9.420;2023-04-22T13:54:55;97958.72;;;23.73;31.05
48792;BME280;34587;48.816;9.420;2023-04-22T13:57:21;97965.75;;;23.10;32.05
48792;BME280;34587;48.816;9.420;2023-04-22T13:59:48;97962.66;;;23.05;32.15
48792;BME280;34587;48.816;9.420;2023-04-22T14:02:13;97957.53;;;23.24;32.39
48792;BME280;34587;48.816;9.420;2023-04-22T14:04:39;97961.66;;;23.17;32.69
48792;BME280;34587;48.816;9.420;2023-04-22T14:07:05;97958.91;;;23.40;32.13
48792;BME280;34587;48.816;9.420;2023-04-22T14:09:30;97967.19;;;23.14;33.83
48792;BME280;34587;48.816;9.420;2023-04-22T14:11:56;97969.97;;;23.13;35.28
48792;BME280;34587;48.816;9.420;2023-04-22T14:14:22;97970.91;;;22.57;37.28
48792;BME280;34587;48.816;9.420;2023-04-22T14:16:47;97975.59;;;21.97;38.26
48792;BME280;34587;48.816;9.420;2023-04-22T14:19:12;97978.09;;;21.99;38.74
48792;BME280;34587;48.816;9.420;2023-04-22T14:21:38;97975.25;;;21.91;39.46
48792;BME280;34587;48.816;9.420;2023-04-22T14:24:04;97977.44;;;22.19;39.95
48792;BME280;34587;48.816;9.420;2023-04-22T14:26:29;97977.19;;;22.22;38.34
48792;BME280;34587;48.816;9.420;2023-04-22T14:28:56;97981.50;;;22.23;37.50
48792;BME280;34587;48.816;9.420;2023-04-22T14:31:22;97976.44;;;22.09;39.50
48792;BME280;34587;48.816;9.420;2023-04-22T14:33:48;97974.53;;;22.33;40.47
48792;BME280;34587;48.816;9.420;2023-04-22T14:36:14;97980.56;;;22.36;41.62
48792;BME280;34587;48.816;9.420;2023-04-22T14:38:40;97982.94;;;22.05;41.51
48792;BME280;34587;48.816;9.420;2023-04-22T14:41:05;97981.78;;;21.63;41.36
48792;BME280;34587;48.816;9.420;2023-04-22T14:43:31;97982.16;;;21.69;41.47
48792;BME280;34587;48.816;9.420;2023-04-22T14:45:56;97982.41;;;21.89;41.33
48792;BME280;34587;48.816;9.420;2023-04-22T14:48:21;97980.53;;;21.91;41.06
48792;BME280;34587;48.816;9.420;2023-04-22T14:50:49;97983.03;;;21.92;38.70
48792;BME280;34587;48.816;9.420;2023-04-22T14:53:14;97978.75;;;22.14;39.25
48792;BME280;34587;48.816;9.420;2023-04-22T14:55:40;97984.34;;;21.98;39.91
48792;BME280;34587;48.816;9.420;2023-04-22T14:58:05;97979.66;;;21.90;39.67
48792;BME280;34587;48.816;9.420;2023-04-22T15:00:31;97979.19;;;21.96;40.44
48792;BME280;34587;48.816;9.420;2023-04-22T15:02:56;97976.16;;;21.78;40.24
48792;BME280;34587;48.816;9.420;2023-04-22T15:05:22;97980.59;;;21.78;38.93
48792;BME280;34587;48.816;9.420;2023-04-22T15:07:48;97986.72;;;21.90;38.58
48792;BME280;34587;48.816;9.420;2023-04-22T15:10:14;97983.59;;;21.73;39.86
48792;BME280;34587;48.816;9.420;2023-04-22T15:12:41;97979.22;;;21.61;38.81
48792;BME280;34587;48.816;9.420;2023-04-22T15:15:06;97969.22;;;21.77;37.44
48792;BME280;34587;48.816;9.420;2023-04-22T15:17:32;97976.38;;;21.64;39.60
48792;BME280;34587;48.816;9.420;2023-04-22T15:19:59;97974.00;;;21.84;38.42
48792;BME280;34587;48.816;9.420;2023-04-22T15:22:24;97984.06;;;21.67;39.08
48792;BME280;34587;48.816;9.420;2023-04-22T15:24:50;97987.22;;;21.95;37.39
48792;BME280;34587;48.816;9.420;2023-04-22T15:27:15;97985.53;;;21.83;39.00
48792;BME280;34587;48.816;9.420;2023-04-22T15:29:41;97984.25;;;22.11;37.87
48792;BME280;34587;48.816;9.420;2023-04-22T15:32:09;97987.25;;;22.06;38.59
48792;BME280;34587;48.816;9.420;2023-04-22T15:34:35;97986.06;;;22.10;38.09
48792;BME280;34587;48.816;9.420;2023-04-22T15:37:00;97983.88;;;22.04;37.89
48792;BME280;34587;48.816;9.420;2023-04-22T15:39:25;97985.66;;;21.92;37.06
48792;BME280;34587;48.816;9.420;2023-04-22T15:41:51;97982.47;;;22.11;37.55
48792;BME280;34587;48.816;9.420;2023-04-22T15:44:16;97986.50;;;22.04;36.21
48792;BME280;34587;48.816;9.420;2023-04-22T15:46:43;97980.78;;;22.10;37.35
48792;BME280;34587;48.816;9.420;2023-04-22T15:49:09;97983.88;;;21.93;36.92
48792;BME280;34587;48.816;9.420;2023-04-22T15:51:34;97984.16;;;21.54;37.99
48792;BME280;34587;48.816;9.420;2023-04-22T15:54:00;97982.84;;;21.60;37.59
48792;BME280;34587;48.816;9.420;2023-04-22T15:56:25;97981.31;;;21.69;36.95
48792;BME280;34587;48.816;9.420;2023-04-22T15:58:51;97981.16;;;21.59;38.01
48792;BME280;34587;48.816;9.420;2023-04-22T16:01:17;97984.50;;;21.61;37.67
48792;BME280;34587;48.816;9.420;2023-04-22T16:03:46;97982.31;;;21.44;37.54
48792;BME280;34587;48.816;9.420;2023-04-22T16:06:12;97987.59;;;21.44;36.87
48792;BME280;34587;48.816;9.420;2023-04-22T16:08:38;97981.84;;;21.26;38.13
48792;BME280;34587;48.816;9.420;2023-04-22T16:11:03;97985.91;;;21.43;36.86
48792;BME280;34587;48.816;9.420;2023-04-22T16:13:29;97980.53;;;21.55;36.45
48792;BME280;34587;48.816;9.420;2023-04-22T16:15:55;97980.66;;;21.43;37.33
48792;BME280;34587;48.816;9.420;2023-04-22T16:18:21;97983.78;;;21.48;37.28
48792;BME280;34587;48.816;9.420;2023-04-22T16:20:46;97969.91;;;21.57;37.26
48792;BME280;34587;48.816;9.420;2023-04-22T16:23:11;97980.31;;;21.23;37.44
48792;BME280;34587;48.816;9.420;2023-04-22T16:25:37;97985.00;;;21.07;37.43
48792;BME280;34587;48.816;9.420;2023-04-22T16:28:02;97990.56;;;21.15;37.27
48792;BME280;34587;48.816;9.420;2023-04-22T16:30:27;97987.94;;;21.15;38.12
48792;BME280;34587;48.816;9.420;2023-04-22T16:32:53;97988.81;;;21.27;39.11
48792;BME280;34587;48.816;9.420;2023-04-22T16:35:18;97990.28;;;21.07;38.92
48792;BME280;34587;48.816;9.420;2023-04-22T16:37:43;97989.72;;;20.91;39.35
48792;BME280;34587;48.816;9.420;2023-04-22T16:40:09;97995.50;;;20.96;38.85
48792;BME280;34587;48.816;9.420;2023-04-22T16:42:34;97991.22;;;20.82;40.20
48792;BME280;34587;48.816;9.420;2023-04-22T16:44:59;97995.13;;;20.89;39.75
48792;BME280;34587;48.816;9.420;2023-04-22T16:47:25;97986.09;;;20.81;40.22
48792;BME280;34587;48.816;9.420;2023-04-22T16:49:51;97993.66;;;20.85;40.16
48792;BME280;34587;48.816;9.420;2023-04-22T16:52:16;97990.22;;;20.72;40.41
48792;BME280;34587;48.816;9.420;2023-04-22T16:54:42;97999.91;;;20.71;40.63
48792;BME280;34587;48.816;9.420;2023-04-22T16:57:08;97996.41;;;20.47;41.12
48792;BME280;34587;48.816;9.420;2023-04-22T16:59:33;97987.31;;;20.38;40.57
48792;BME280;34587;48.816;9.420;2023-04-22T17:01:59;97988.09;;;20.27;40.59
48792;BME280;34587;48.816;9.420;2023-04-22T17:04:24;97985.66;;;20.24;41.03
48792;BME280;34587;48.816;9.420;2023-04-22T17:06:50;97984.69;;;20.25;40.96
48792;BME280;34587;48.816;9.420;2023-04-22T17:09:15;97994.19;;;20.15;41.39
48792;BME280;34587;48.816;9.420;2023-04-22T17:11:41;97990.31;;;20.08;41.71
48792;BME280;34587;48.816;9.420;2023-04-22T17:14:06;97994.50;;;20.11;41.49
48792;BME280;34587;48.816;9.420;2023-04-22T17:16:31;97994.63;;;19.84;41.91
48792;BME280;34587;48.816;9.420;2023-04-22T17:18:57;97989.66;;;19.92;41.48
48792;BME280;34587;48.816;9.420;2023-04-22T17:21:22;97997.03;;;19.87;40.84
48792;BME280;34587;48.816;9.420;2023-04-22T17:23:48;97985.25;;;19.80;41.06
48792;BME280;34587;48.816;9.420;2023-04-22T17:26:13;97986.00;;;19.82;41.13
48792;BME280;34587;48.816;9.420;2023-04-22T17:28:39;97989.66;;;19.92;41.11
48792;BME280;34587;48.816;9.420;2023-04-22T17:31:04;97989.91;;;19.89;40.96